Biel, Switzerland
Current Conditions -  °F | °C
As of 1:50 PM on Friday 19 Dec 2014 (Local Time) from LSZG Reporting Station
Broken Clouds Broken Clouds  
Wind Chill: 54°   Ceiling: 23000
Heat Index: 54°   Visibility: 6mi
Dew Point: 46°   Wind: 17mph
Humidity: 77%   Direction: 250°WSW
Pressure: 30.21"   Gusts: NA
Location:  47.15°N, 7.24°E
Report Text: LSZG 191250Z 25015KT 9999 FEW030 BKN230 12/08 Q1023 NOSIG
Loading
Personal Weather Stations






























Interactive Weather Map New forecast layout! Learn more

10-Day Weather Forecast

Advertisements
Track Severe Weather on mobile